sensor_id;sensor_type;location;lat;lon;timestamp;pressure;altitude;pressure_sealevel;temperature;humidity
30708;BME280;17458;48.958;8.284;2022-10-12T00:01:46;101051.13;;;13.04;84.73
30708;BME280;17458;48.958;8.284;2022-10-12T00:04:30;101044.16;;;13.24;84.42
30708;BME280;17458;48.958;8.284;2022-10-12T00:07:14;101043.25;;;13.07;84.45
30708;BME280;17458;48.958;8.284;2022-10-12T00:09:58;101044.56;;;12.97;85.94
30708;BME280;17458;48.958;8.284;2022-10-12T00:12:41;101041.94;;;12.81;86.63
30708;BME280;17458;48.958;8.284;2022-10-12T00:15:26;101045.56;;;12.99;85.27
30708;BME280;17458;48.958;8.284;2022-10-12T00:18:10;101046.50;;;12.84;86.02
30708;BME280;17458;48.958;8.284;2022-10-12T00:21:05;101047.81;;;12.92;86.56
30708;BME280;17458;48.958;8.284;2022-10-12T00:23:50;101046.25;;;13.13;84.60
30708;BME280;17458;48.958;8.284;2022-10-12T00:26:34;101044.06;;;13.04;85.03
30708;BME280;17458;48.958;8.284;2022-10-12T00:29:19;101044.66;;;12.99;84.91
30708;BME280;17458;48.958;8.284;2022-10-12T00:32:03;101036.09;;;12.88;84.48
30708;BME280;17458;48.958;8.284;2022-10-12T00:34:47;101037.13;;;12.74;85.32
30708;BME280;17458;48.958;8.284;2022-10-12T00:37:32;101041.63;;;12.75;85.63
30708;BME280;17458;48.958;8.284;2022-10-12T00:40:17;101050.75;;;12.80;84.97
30708;BME280;17458;48.958;8.284;2022-10-12T00:43:01;101042.19;;;12.86;84.41
30708;BME280;17458;48.958;8.284;2022-10-12T00:45:45;101042.56;;;12.75;84.07
30708;BME280;17458;48.958;8.284;2022-10-12T00:48:30;101037.16;;;12.58;85.13
30708;BME280;17458;48.958;8.284;2022-10-12T00:51:15;101046.91;;;12.57;85.42
30708;BME280;17458;48.958;8.284;2022-10-12T00:54:05;101044.06;;;12.70;84.17
30708;BME280;17458;48.958;8.284;2022-10-12T00:56:53;101043.53;;;12.77;82.98
30708;BME280;17458;48.958;8.284;2022-10-12T00:59:50;101044.25;;;12.57;83.94
30708;BME280;17458;48.958;8.284;2022-10-12T01:02:39;101042.66;;;12.61;83.11
30708;BME280;17458;48.958;8.284;2022-10-12T01:05:24;101052.91;;;12.53;83.67
30708;BME280;17458;48.958;8.284;2022-10-12T01:08:09;101050.41;;;12.40;83.97
30708;BME280;17458;48.958;8.284;2022-10-12T01:10:53;101047.94;;;12.43;83.74
30708;BME280;17458;48.958;8.284;2022-10-12T01:13:38;101048.84;;;12.43;83.10
30708;BME280;17458;48.958;8.284;2022-10-12T01:16:35;101050.84;;;12.31;83.35
30708;BME280;17458;48.958;8.284;2022-10-12T01:22:21;101054.75;;;12.22;83.55
30708;BME280;17458;48.958;8.284;2022-10-12T01:25:29;101049.41;;;12.38;82.24
30708;BME280;17458;48.958;8.284;2022-10-12T01:31:48;101057.75;;;12.28;82.99
30708;BME280;17458;48.958;8.284;2022-10-12T01:34:52;101042.69;;;12.12;83.21
30708;BME280;17458;48.958;8.284;2022-10-12T01:41:20;101037.78;;;12.03;82.69
30708;BME280;17458;48.958;8.284;2022-10-12T01:44:05;101042.84;;;12.15;82.32
30708;BME280;17458;48.958;8.284;2022-10-12T01:46:50;101034.78;;;12.30;81.85
30708;BME280;17458;48.958;8.284;2022-10-12T01:49:35;101044.84;;;12.35;80.87
30708;BME280;17458;48.958;8.284;2022-10-12T01:52:27;101045.00;;;12.22;81.25
30708;BME280;17458;48.958;8.284;2022-10-12T01:55:27;101051.84;;;12.17;81.64
30708;BME280;17458;48.958;8.284;2022-10-12T01:58:40;101041.50;;;12.23;80.83
30708;BME280;17458;48.958;8.284;2022-10-12T02:02:01;101042.13;;;12.18;81.52
30708;BME280;17458;48.958;8.284;2022-10-12T02:04:51;101048.19;;;12.15;81.45
30708;BME280;17458;48.958;8.284;2022-10-12T02:07:48;101043.75;;;11.99;81.24
30708;BME280;17458;48.958;8.284;2022-10-12T02:10:37;101035.59;;;11.96;81.73
30708;BME280;17458;48.958;8.284;2022-10-12T02:13:25;101038.09;;;12.26;80.71
30708;BME280;17458;48.958;8.284;2022-10-12T02:16:16;101031.22;;;12.29;79.91
30708;BME280;17458;48.958;8.284;2022-10-12T02:19:01;101038.19;;;11.95;80.65
30708;BME280;17458;48.958;8.284;2022-10-12T02:21:49;101035.69;;;12.14;80.87
30708;BME280;17458;48.958;8.284;2022-10-12T02:24:36;101021.81;;;12.03;80.89
30708;BME280;17458;48.958;8.284;2022-10-12T02:27:23;101025.22;;;12.17;80.28
30708;BME280;17458;48.958;8.284;2022-10-12T02:30:09;101016.22;;;11.99;81.08
30708;BME280;17458;48.958;8.284;2022-10-12T02:33:10;101021.22;;;12.09;80.49
30708;BME280;17458;48.958;8.284;2022-10-12T02:36:03;101013.09;;;12.06;80.03
30708;BME280;17458;48.958;8.284;2022-10-12T02:39:16;101018.06;;;12.16;80.02
30708;BME280;17458;48.958;8.284;2022-10-12T02:42:07;101023.03;;;12.10;79.95
30708;BME280;17458;48.958;8.284;2022-10-12T02:44:56;101025.31;;;12.19;79.53
30708;BME280;17458;48.958;8.284;2022-10-12T02:47:41;101021.47;;;12.30;78.96
30708;BME280;17458;48.958;8.284;2022-10-12T02:50:28;101020.22;;;12.23;79.66
30708;BME280;17458;48.958;8.284;2022-10-12T02:53:13;101006.72;;;12.36;78.66
30708;BME280;17458;48.958;8.284;2022-10-12T02:56:06;101011.09;;;12.02;79.73
30708;BME280;17458;48.958;8.284;2022-10-12T02:58:53;101020.56;;;12.13;79.30
30708;BME280;17458;48.958;8.284;2022-10-12T03:01:37;101023.22;;;12.29;78.58
30708;BME280;17458;48.958;8.284;2022-10-12T03:04:21;101022.97;;;12.25;78.48
30708;BME280;17458;48.958;8.284;2022-10-12T03:07:05;101027.16;;;12.20;78.99
30708;BME280;17458;48.958;8.284;2022-10-12T03:09:49;101016.81;;;12.26;78.89
30708;BME280;17458;48.958;8.284;2022-10-12T03:12:33;101011.56;;;12.27;78.64
30708;BME280;17458;48.958;8.284;2022-10-12T03:15:17;101019.38;;;12.24;78.41
30708;BME280;17458;48.958;8.284;2022-10-12T03:18:01;101017.72;;;12.10;78.98
30708;BME280;17458;48.958;8.284;2022-10-12T03:20:48;101016.66;;;11.90;79.56
30708;BME280;17458;48.958;8.284;2022-10-12T03:23:32;101014.66;;;12.02;79.68
30708;BME280;17458;48.958;8.284;2022-10-12T03:26:16;101017.63;;;12.08;78.85
30708;BME280;17458;48.958;8.284;2022-10-12T03:29:00;101016.03;;;11.80;79.60
30708;BME280;17458;48.958;8.284;2022-10-12T03:31:44;101020.97;;;11.88;79.43
30708;BME280;17458;48.958;8.284;2022-10-12T03:34:28;101027.88;;;11.85;79.28
30708;BME280;17458;48.958;8.284;2022-10-12T03:37:12;101021.16;;;11.60;79.92
30708;BME280;17458;48.958;8.284;2022-10-12T03:39:56;101023.66;;;11.73;79.84
30708;BME280;17458;48.958;8.284;2022-10-12T03:42:40;101023.41;;;11.69;80.06
30708;BME280;17458;48.958;8.284;2022-10-12T03:45:23;101021.81;;;11.87;79.59
30708;BME280;17458;48.958;8.284;2022-10-12T03:48:08;101015.69;;;11.73;79.47
30708;BME280;17458;48.958;8.284;2022-10-12T03:50:52;101026.34;;;11.43;80.94
30708;BME280;17458;48.958;8.284;2022-10-12T03:53:36;101023.91;;;11.31;81.58
30708;BME280;17458;48.958;8.284;2022-10-12T03:56:20;101021.31;;;11.32;80.91
30708;BME280;17458;48.958;8.284;2022-10-12T03:59:04;101022.59;;;11.24;81.05
30708;BME280;17458;48.958;8.284;2022-10-12T04:01:48;101021.09;;;11.44;80.52
30708;BME280;17458;48.958;8.284;2022-10-12T04:04:32;101022.00;;;11.14;81.04
30708;BME280;17458;48.958;8.284;2022-10-12T04:07:16;101026.94;;;11.22;80.71
30708;BME280;17458;48.958;8.284;2022-10-12T04:10:00;101032.97;;;11.34;80.26
30708;BME280;17458;48.958;8.284;2022-10-12T04:12:44;101026.69;;;11.49;79.53
30708;BME280;17458;48.958;8.284;2022-10-12T04:15:28;101025.13;;;11.37;79.27
30708;BME280;17458;48.958;8.284;2022-10-12T04:18:12;101025.66;;;11.61;78.91
30708;BME280;17458;48.958;8.284;2022-10-12T04:20:56;101030.38;;;11.67;78.46
30708;BME280;17458;48.958;8.284;2022-10-12T04:23:40;101036.19;;;11.29;79.73
30708;BME280;17458;48.958;8.284;2022-10-12T04:26:24;101035.06;;;11.25;79.64
30708;BME280;17458;48.958;8.284;2022-10-12T04:29:11;101036.47;;;11.64;78.56
30708;BME280;17458;48.958;8.284;2022-10-12T04:31:56;101043.59;;;11.65;78.55
30708;BME280;17458;48.958;8.284;2022-10-12T04:34:40;101040.53;;;11.89;77.62
30708;BME280;17458;48.958;8.284;2022-10-12T04:37:25;101051.34;;;11.92;77.31
30708;BME280;17458;48.958;8.284;2022-10-12T04:40:10;101047.69;;;11.75;78.29
30708;BME280;17458;48.958;8.284;2022-10-12T04:42:54;101052.59;;;11.98;77.48
30708;BME280;17458;48.958;8.284;2022-10-12T04:45:39;101050.59;;;11.63;77.79
30708;BME280;17458;48.958;8.284;2022-10-12T04:48:23;101056.81;;;11.64;77.84
30708;BME280;17458;48.958;8.284;2022-10-12T04:51:08;101063.13;;;11.66;77.60
30708;BME280;17458;48.958;8.284;2022-10-12T04:53:52;101069.00;;;11.75;77.38
30708;BME280;17458;48.958;8.284;2022-10-12T04:56:36;101060.09;;;11.75;76.62
30708;BME280;17458;48.958;8.284;2022-10-12T04:59:20;101069.25;;;11.80;75.93
30708;BME280;17458;48.958;8.284;2022-10-12T05:02:05;101069.34;;;11.81;76.29
30708;BME280;17458;48.958;8.284;2022-10-12T05:04:48;101070.13;;;11.95;76.25
30708;BME280;17458;48.958;8.284;2022-10-12T05:07:33;101064.97;;;11.98;76.18
30708;BME280;17458;48.958;8.284;2022-10-12T05:10:17;101071.97;;;12.12;75.32
30708;BME280;17458;48.958;8.284;2022-10-12T05:13:01;101074.69;;;11.97;75.34
30708;BME280;17458;48.958;8.284;2022-10-12T05:15:45;101077.38;;;11.97;75.29
30708;BME280;17458;48.958;8.284;2022-10-12T05:18:29;101065.31;;;12.04;75.64
30708;BME280;17458;48.958;8.284;2022-10-12T05:21:13;101060.00;;;12.04;75.80
30708;BME280;17458;48.958;8.284;2022-10-12T05:23:57;101058.34;;;12.06;76.06
30708;BME280;17458;48.958;8.284;2022-10-12T05:26:40;101063.31;;;12.00;75.97
30708;BME280;17458;48.958;8.284;2022-10-12T05:29:24;101063.13;;;11.97;76.13
30708;BME280;17458;48.958;8.284;2022-10-12T05:32:08;101058.81;;;11.99;75.93
30708;BME280;17458;48.958;8.284;2022-10-12T05:34:52;101061.50;;;12.15;75.63
30708;BME280;17458;48.958;8.284;2022-10-12T05:37:37;101054.16;;;12.27;75.49
30708;BME280;17458;48.958;8.284;2022-10-12T05:40:21;101065.81;;;12.13;75.93
30708;BME280;17458;48.958;8.284;2022-10-12T05:43:05;101069.41;;;12.14;76.55
30708;BME280;17458;48.958;8.284;2022-10-12T05:45:49;101057.75;;;12.12;76.20
30708;BME280;17458;48.958;8.284;2022-10-12T05:48:33;101059.00;;;12.34;75.82
30708;BME280;17458;48.958;8.284;2022-10-12T05:51:17;101058.94;;;12.33;75.30
30708;BME280;17458;48.958;8.284;2022-10-12T05:54:01;101063.06;;;12.28;74.86
30708;BME280;17458;48.958;8.284;2022-10-12T05:56:45;101061.06;;;12.40;75.73
30708;BME280;17458;48.958;8.284;2022-10-12T05:59:29;101068.50;;;12.29;76.44
30708;BME280;17458;48.958;8.284;2022-10-12T06:02:14;101074.75;;;12.46;75.85
30708;BME280;17458;48.958;8.284;2022-10-12T06:04:59;101075.31;;;12.57;74.66
30708;BME280;17458;48.958;8.284;2022-10-12T06:07:44;101075.88;;;12.67;73.69
30708;BME280;17458;48.958;8.284;2022-10-12T06:10:28;101074.47;;;12.41;74.06
30708;BME280;17458;48.958;8.284;2022-10-12T06:13:12;101082.28;;;12.22;75.25
30708;BME280;17458;48.958;8.284;2022-10-12T06:15:57;101072.09;;;11.83;76.36
30708;BME280;17458;48.958;8.284;2022-10-12T06:18:41;101088.66;;;11.93;76.21
30708;BME280;17458;48.958;8.284;2022-10-12T06:21:24;101086.78;;;11.91;75.89
30708;BME280;17458;48.958;8.284;2022-10-12T06:24:08;101089.84;;;11.98;75.52
30708;BME280;17458;48.958;8.284;2022-10-12T06:26:52;101090.53;;;11.80;76.02
30708;BME280;17458;48.958;8.284;2022-10-12T06:29:36;101094.53;;;12.02;75.75
30708;BME280;17458;48.958;8.284;2022-10-12T06:32:21;101088.28;;;12.02;75.73
30708;BME280;17458;48.958;8.284;2022-10-12T06:35:05;101084.47;;;12.13;75.82
30708;BME280;17458;48.958;8.284;2022-10-12T06:37:49;101088.69;;;12.10;75.69
30708;BME280;17458;48.958;8.284;2022-10-12T06:40:34;101088.38;;;12.03;76.02
30708;BME280;17458;48.958;8.284;2022-10-12T06:43:18;101098.44;;;12.25;75.99
30708;BME280;17458;48.958;8.284;2022-10-12T06:46:02;101099.03;;;12.36;75.32
30708;BME280;17458;48.958;8.284;2022-10-12T06:48:47;101098.09;;;12.35;75.37
30708;BME280;17458;48.958;8.284;2022-10-12T06:51:30;101085.47;;;12.48;75.21
30708;BME280;17458;48.958;8.284;2022-10-12T06:54:14;101089.13;;;12.17;75.25
30708;BME280;17458;48.958;8.284;2022-10-12T06:56:58;101086.13;;;12.27;75.33
30708;BME280;17458;48.958;8.284;2022-10-12T06:59:42;101089.34;;;11.89;76.46
30708;BME280;17458;48.958;8.284;2022-10-12T07:02:26;101099.97;;;12.20;76.33
30708;BME280;17458;48.958;8.284;2022-10-12T07:05:10;101085.66;;;12.34;75.77
30708;BME280;17458;48.958;8.284;2022-10-12T07:07:55;101088.88;;;12.45;75.94
30708;BME280;17458;48.958;8.284;2022-10-12T07:10:40;101094.03;;;12.58;75.04
30708;BME280;17458;48.958;8.284;2022-10-12T07:13:24;101094.78;;;12.39;75.51
30708;BME280;17458;48.958;8.284;2022-10-12T07:16:08;101096.53;;;12.39;76.13
30708;BME280;17458;48.958;8.284;2022-10-12T07:18:52;101092.47;;;12.46;76.16
30708;BME280;17458;48.958;8.284;2022-10-12T07:21:36;101100.47;;;12.62;76.20
30708;BME280;17458;48.958;8.284;2022-10-12T07:24:19;101099.75;;;12.82;75.25
30708;BME280;17458;48.958;8.284;2022-10-12T07:27:06;101094.59;;;12.69;75.80
30708;BME280;17458;48.958;8.284;2022-10-12T07:29:50;101099.91;;;12.85;75.58
30708;BME280;17458;48.958;8.284;2022-10-12T07:32:34;101098.75;;;12.80;75.66
30708;BME280;17458;48.958;8.284;2022-10-12T07:35:19;101104.22;;;12.99;75.74
30708;BME280;17458;48.958;8.284;2022-10-12T07:38:03;101104.28;;;13.17;74.28
30708;BME280;17458;48.958;8.284;2022-10-12T07:40:47;101106.03;;;13.34;74.31
30708;BME280;17458;48.958;8.284;2022-10-12T07:43:31;101103.91;;;13.63;73.43
30708;BME280;17458;48.958;8.284;2022-10-12T07:46:16;101099.13;;;13.73;72.67
30708;BME280;17458;48.958;8.284;2022-10-12T07:49:00;101090.59;;;13.45;73.53
30708;BME280;17458;48.958;8.284;2022-10-12T07:51:43;101092.88;;;13.73;72.73
30708;BME280;17458;48.958;8.284;2022-10-12T07:54:29;101091.88;;;13.71;72.35
30708;BME280;17458;48.958;8.284;2022-10-12T07:57:13;101086.56;;;13.90;72.16
30708;BME280;17458;48.958;8.284;2022-10-12T07:59:57;101086.13;;;13.99;71.44
30708;BME280;17458;48.958;8.284;2022-10-12T08:02:41;101094.25;;;13.47;72.45
30708;BME280;17458;48.958;8.284;2022-10-12T08:05:25;101099.41;;;13.79;72.45
30708;BME280;17458;48.958;8.284;2022-10-12T08:08:10;101094.78;;;13.75;72.30
30708;BME280;17458;48.958;8.284;2022-10-12T08:10:54;101097.38;;;14.11;71.77
30708;BME280;17458;48.958;8.284;2022-10-12T08:13:40;101097.03;;;14.03;71.31
30708;BME280;17458;48.958;8.284;2022-10-12T08:16:24;101104.72;;;14.34;71.14
30708;BME280;17458;48.958;8.284;2022-10-12T08:19:09;101109.53;;;14.41;70.44
30708;BME280;17458;48.958;8.284;2022-10-12T08:21:53;101104.63;;;14.70;70.17
30708;BME280;17458;48.958;8.284;2022-10-12T08:24:37;101114.78;;;14.98;69.15
30708;BME280;17458;48.958;8.284;2022-10-12T08:27:21;101112.72;;;15.11;69.35
30708;BME280;17458;48.958;8.284;2022-10-12T08:30:06;101115.53;;;15.35;68.19
30708;BME280;17458;48.958;8.284;2022-10-12T08:32:51;101118.44;;;14.60;70.27
30708;BME280;17458;48.958;8.284;2022-10-12T08:35:39;101117.91;;;14.68;71.28
30708;BME280;17458;48.958;8.284;2022-10-12T08:38:23;101114.25;;;14.66;71.52
30708;BME280;17458;48.958;8.284;2022-10-12T08:41:20;101109.38;;;14.77;71.20
30708;BME280;17458;48.958;8.284;2022-10-12T08:47:35;101110.03;;;14.71;71.71
30708;BME280;17458;48.958;8.284;2022-10-12T08:50:46;101104.78;;;14.94;71.59
30708;BME280;17458;48.958;8.284;2022-10-12T08:53:56;101109.47;;;14.78;71.45
30708;BME280;17458;48.958;8.284;2022-10-12T08:56:43;101107.69;;;14.98;71.60
30708;BME280;17458;48.958;8.284;2022-10-12T08:59:28;101107.81;;;15.01;71.20
30708;BME280;17458;48.958;8.284;2022-10-12T09:09:13;101102.09;;;15.75;69.19
30708;BME280;17458;48.958;8.284;2022-10-12T09:12:24;101108.75;;;15.22;71.05
30708;BME280;17458;48.958;8.284;2022-10-12T09:15:30;101117.38;;;15.36;70.56
30708;BME280;17458;48.958;8.284;2022-10-12T09:18:21;101118.59;;;15.44;70.71
30708;BME280;17458;48.958;8.284;2022-10-12T09:21:12;101105.69;;;15.76;69.33
30708;BME280;17458;48.958;8.284;2022-10-12T09:23:59;101109.03;;;15.70;69.16
30708;BME280;17458;48.958;8.284;2022-10-12T09:26:45;101114.56;;;15.75;69.28
30708;BME280;17458;48.958;8.284;2022-10-12T09:29:31;101113.00;;;15.80;68.94
30708;BME280;17458;48.958;8.284;2022-10-12T09:32:27;101107.84;;;16.07;68.52
30708;BME280;17458;48.958;8.284;2022-10-12T09:35:14;101115.19;;;16.35;67.46
30708;BME280;17458;48.958;8.284;2022-10-12T09:37:59;101109.03;;;16.15;67.19
30708;BME280;17458;48.958;8.284;2022-10-12T09:40:44;101118.31;;;16.23;67.15
30708;BME280;17458;48.958;8.284;2022-10-12T09:43:28;101119.03;;;16.19;68.17
30708;BME280;17458;48.958;8.284;2022-10-12T09:46:14;101122.22;;;15.66;69.77
30708;BME280;17458;48.958;8.284;2022-10-12T09:48:59;101114.72;;;16.00;68.67
30708;BME280;17458;48.958;8.284;2022-10-12T09:51:44;101115.38;;;16.39;67.62
30708;BME280;17458;48.958;8.284;2022-10-12T09:54:29;101110.94;;;16.40;67.76
30708;BME280;17458;48.958;8.284;2022-10-12T09:57:35;101117.53;;;16.72;66.35
30708;BME280;17458;48.958;8.284;2022-10-12T10:00:32;101119.19;;;16.68;66.28
30708;BME280;17458;48.958;8.284;2022-10-12T10:03:26;101109.56;;;16.51;66.99
30708;BME280;17458;48.958;8.284;2022-10-12T10:06:10;101106.47;;;16.62;66.70
30708;BME280;17458;48.958;8.284;2022-10-12T10:08:54;101106.81;;;16.49;66.61
30708;BME280;17458;48.958;8.284;2022-10-12T10:11:39;101106.19;;;16.79;66.42
30708;BME280;17458;48.958;8.284;2022-10-12T10:14:23;101112.31;;;16.52;67.62
30708;BME280;17458;48.958;8.284;2022-10-12T10:17:13;101102.34;;;16.72;67.56
30708;BME280;17458;48.958;8.284;2022-10-12T10:20:00;101103.69;;;16.83;66.25
30708;BME280;17458;48.958;8.284;2022-10-12T10:22:46;101103.13;;;16.93;66.52
30708;BME280;17458;48.958;8.284;2022-10-12T10:25:32;101096.50;;;17.08;67.01
30708;BME280;17458;48.958;8.284;2022-10-12T10:28:27;101101.34;;;17.45;65.34
30708;BME280;17458;48.958;8.284;2022-10-12T10:31:18;101094.50;;;17.27;65.53
30708;BME280;17458;48.958;8.284;2022-10-12T10:34:21;101103.56;;;17.82;64.88
30708;BME280;17458;48.958;8.284;2022-10-12T10:37:11;101093.84;;;17.87;64.11
30708;BME280;17458;48.958;8.284;2022-10-12T10:39:57;101089.50;;;17.90;63.81
30708;BME280;17458;48.958;8.284;2022-10-12T10:42:48;101100.31;;;18.20;63.54
30708;BME280;17458;48.958;8.284;2022-10-12T10:45:40;101092.34;;;18.25;63.42
30708;BME280;17458;48.958;8.284;2022-10-12T10:48:29;101094.53;;;18.08;64.80
30708;BME280;17458;48.958;8.284;2022-10-12T10:51:13;101101.06;;;18.16;64.27
30708;BME280;17458;48.958;8.284;2022-10-12T10:54:12;101091.38;;;18.51;62.43
30708;BME280;17458;48.958;8.284;2022-10-12T10:57:00;101099.28;;;18.17;62.53
30708;BME280;17458;48.958;8.284;2022-10-12T10:59:52;101085.88;;;18.18;63.17
30708;BME280;17458;48.958;8.284;2022-10-12T11:05:37;101094.06;;;18.51;62.13
30708;BME280;17458;48.958;8.284;2022-10-12T11:08:25;101084.81;;;18.71;62.56
30708;BME280;17458;48.958;8.284;2022-10-12T11:11:13;101085.13;;;18.82;62.30
30708;BME280;17458;48.958;8.284;2022-10-12T11:14:03;101077.31;;;18.91;62.29
30708;BME280;17458;48.958;8.284;2022-10-12T11:16:51;101073.28;;;18.46;62.85
30708;BME280;17458;48.958;8.284;2022-10-12T11:19:43;101072.66;;;18.26;63.15
30708;BME280;17458;48.958;8.284;2022-10-12T11:22:43;101062.28;;;18.68;62.62
30708;BME280;17458;48.958;8.284;2022-10-12T11:25:40;101063.97;;;18.96;62.31
30708;BME280;17458;48.958;8.284;2022-10-12T11:28:30;101056.53;;;18.56;62.74
30708;BME280;17458;48.958;8.284;2022-10-12T11:31:19;101047.34;;;18.77;62.90
30708;BME280;17458;48.958;8.284;2022-10-12T11:34:07;101056.25;;;19.09;63.03
30708;BME280;17458;48.958;8.284;2022-10-12T11:36:54;101052.94;;;19.18;61.02
30708;BME280;17458;48.958;8.284;2022-10-12T11:39:44;101047.03;;;19.00;61.68
30708;BME280;17458;48.958;8.284;2022-10-12T11:42:32;101044.94;;;18.88;62.77
30708;BME280;17458;48.958;8.284;2022-10-12T11:45:33;101040.19;;;18.78;62.51
30708;BME280;17458;48.958;8.284;2022-10-12T11:48:32;101036.81;;;19.20;61.65
30708;BME280;17458;48.958;8.284;2022-10-12T11:51:19;101025.75;;;19.43;60.51
30708;BME280;17458;48.958;8.284;2022-10-12T11:54:16;101040.53;;;19.59;60.68
30708;BME280;17458;48.958;8.284;2022-10-12T11:57:09;101029.16;;;19.36;61.00
30708;BME280;17458;48.958;8.284;2022-10-12T12:00:21;101026.66;;;19.80;60.86
30708;BME280;17458;48.958;8.284;2022-10-12T12:03:15;101028.03;;;20.00;60.48
30708;BME280;17458;48.958;8.284;2022-10-12T12:09:29;101014.47;;;20.38;59.13
30708;BME280;17458;48.958;8.284;2022-10-12T12:12:26;101009.00;;;19.94;59.52
30708;BME280;17458;48.958;8.284;2022-10-12T12:15:20;101012.09;;;19.72;60.76
30708;BME280;17458;48.958;8.284;2022-10-12T12:18:23;100998.97;;;19.87;59.93
30708;BME280;17458;48.958;8.284;2022-10-12T12:21:08;100998.19;;;19.91;59.98
30708;BME280;17458;48.958;8.284;2022-10-12T12:23:54;100995.41;;;20.30;59.23
30708;BME280;17458;48.958;8.284;2022-10-12T12:26:45;100991.59;;;20.61;58.49
30708;BME280;17458;48.958;8.284;2022-10-12T12:29:31;100989.81;;;20.20;58.90
30708;BME280;17458;48.958;8.284;2022-10-12T12:32:15;100977.28;;;20.23;59.37
30708;BME280;17458;48.958;8.284;2022-10-12T12:34:59;100992.34;;;20.54;58.48
30708;BME280;17458;48.958;8.284;2022-10-12T12:37:44;100981.47;;;20.51;58.33
30708;BME280;17458;48.958;8.284;2022-10-12T12:40:29;100977.38;;;20.28;58.18
30708;BME280;17458;48.958;8.284;2022-10-12T12:46:13;100966.09;;;20.45;59.38
30708;BME280;17458;48.958;8.284;2022-10-12T12:48:59;100967.06;;;20.07;59.55
30708;BME280;17458;48.958;8.284;2022-10-12T12:51:44;100970.53;;;20.01;59.89
30708;BME280;17458;48.958;8.284;2022-10-12T12:54:28;100972.34;;;20.43;58.60
30708;BME280;17458;48.958;8.284;2022-10-12T13:09:11;100958.84;;;20.43;58.76
30708;BME280;17458;48.958;8.284;2022-10-12T13:12:20;100958.34;;;20.62;58.52
30708;BME280;17458;48.958;8.284;2022-10-12T13:15:22;100949.34;;;20.63;59.46
30708;BME280;17458;48.958;8.284;2022-10-12T13:21:30;100949.84;;;20.92;57.50
30708;BME280;17458;48.958;8.284;2022-10-12T13:24:22;100945.47;;;20.49;58.28
30708;BME280;17458;48.958;8.284;2022-10-12T13:27:22;100943.25;;;20.75;58.44
30708;BME280;17458;48.958;8.284;2022-10-12T13:36:11;100947.84;;;20.80;57.77
30708;BME280;17458;48.958;8.284;2022-10-12T13:39:12;100944.78;;;20.59;58.58
30708;BME280;17458;48.958;8.284;2022-10-12T13:41:59;100949.28;;;20.60;59.12
30708;BME280;17458;48.958;8.284;2022-10-12T13:44:45;100935.84;;;19.76;61.28
30708;BME280;17458;48.958;8.284;2022-10-12T13:47:31;100933.84;;;20.09;59.95
30708;BME280;17458;48.958;8.284;2022-10-12T13:50:19;100937.16;;;20.38;58.72
30708;BME280;17458;48.958;8.284;2022-10-12T13:53:12;100931.09;;;20.48;58.76
30708;BME280;17458;48.958;8.284;2022-10-12T13:56:07;100935.78;;;20.60;58.91
30708;BME280;17458;48.958;8.284;2022-10-12T13:58:57;100937.97;;;20.81;57.78
30708;BME280;17458;48.958;8.284;2022-10-12T14:01:50;100928.72;;;20.23;59.47
30708;BME280;17458;48.958;8.284;2022-10-12T14:04:35;100929.78;;;20.30;59.84
30708;BME280;17458;48.958;8.284;2022-10-12T14:07:30;100933.41;;;20.32;59.37
30708;BME280;17458;48.958;8.284;2022-10-12T14:10:22;100931.34;;;20.18;59.95
30708;BME280;17458;48.958;8.284;2022-10-12T14:13:12;100930.63;;;20.27;59.62
30708;BME280;17458;48.958;8.284;2022-10-12T14:15:58;100929.94;;;19.95;59.97
30708;BME280;17458;48.958;8.284;2022-10-12T14:18:44;100922.25;;;20.13;59.79
30708;BME280;17458;48.958;8.284;2022-10-12T14:21:30;100919.81;;;20.27;59.46
30708;BME280;17458;48.958;8.284;2022-10-12T14:24:16;100921.50;;;20.22;59.41
30708;BME280;17458;48.958;8.284;2022-10-12T14:27:06;100908.94;;;20.23;60.28
30708;BME280;17458;48.958;8.284;2022-10-12T14:29:55;100915.06;;;20.14;60.14
30708;BME280;17458;48.958;8.284;2022-10-12T14:32:41;100915.13;;;20.17;59.98
30708;BME280;17458;48.958;8.284;2022-10-12T14:35:28;100922.38;;;20.20;59.83
30708;BME280;17458;48.958;8.284;2022-10-12T14:38:48;100921.22;;;20.07;60.10
30708;BME280;17458;48.958;8.284;2022-10-12T14:41:49;100921.03;;;19.98;60.15
30708;BME280;17458;48.958;8.284;2022-10-12T14:44:43;100915.66;;;19.99;59.78
30708;BME280;17458;48.958;8.284;2022-10-12T14:47:30;100916.81;;;20.12;59.83
30708;BME280;17458;48.958;8.284;2022-10-12T14:50:18;100923.22;;;20.17;59.87
30708;BME280;17458;48.958;8.284;2022-10-12T14:53:06;100927.03;;;20.28;59.51
30708;BME280;17458;48.958;8.284;2022-10-12T14:55:52;100921.03;;;19.98;60.55
30708;BME280;17458;48.958;8.284;2022-10-12T14:58:36;100923.94;;;20.07;60.47
30708;BME280;17458;48.958;8.284;2022-10-12T15:01:21;100911.00;;;19.91;60.07
30708;BME280;17458;48.958;8.284;2022-10-12T15:04:06;100921.91;;;19.97;60.16
30708;BME280;17458;48.958;8.284;2022-10-12T15:06:50;100919.75;;;20.24;59.67
30708;BME280;17458;48.958;8.284;2022-10-12T15:09:34;100922.91;;;20.02;59.71
30708;BME280;17458;48.958;8.284;2022-10-12T15:12:20;100908.94;;;20.23;59.25
30708;BME280;17458;48.958;8.284;2022-10-12T15:18:08;100916.91;;;20.16;59.93
30708;BME280;17458;48.958;8.284;2022-10-12T15:20:52;100916.88;;;20.15;60.05
30708;BME280;17458;48.958;8.284;2022-10-12T15:23:39;100909.09;;;20.30;59.27
30708;BME280;17458;48.958;8.284;2022-10-12T15:26:23;100915.38;;;20.29;59.38
30708;BME280;17458;48.958;8.284;2022-10-12T15:29:07;100909.19;;;20.35;59.39
30708;BME280;17458;48.958;8.284;2022-10-12T15:31:51;100911.72;;;20.27;59.80